Archival Weather

Central Park

Central Park, New York (KNYC)

Report from: Thursday, September 21, 2023 1:51 AM EDT
Current time: Sunday, February 25, 2024 5:07 PM EST

Current weather – Weather history – Daily summaries
Weather forecast

Temperature16.7°C (62.1°F)
Dew point10.6°C (51.1°F)
Winds 4 kts (2.1 m/s, 4.6 mph) West-Northwest (290°)
Visibility10 mi. (16.1 km)
Clouds Sky clear
Altimeter30.23 in.Hg (1024 mB)
Relative humidity67 %
Density altitude63 ft. (19 m)
Sea-level pressure102.3 kPa (1023 mB, 30.20 in.Hg)
Max temp last 6 hours20.6°C (69.1°F)
Min temp last 6 hours16.1°C (61.0°F)
Remarks Fully automated report
System requires maintenance
Automated weather observing station with precipitation discriminator
Pressure rising more slowly
Flight conditions Visual Meteorological Conditions
Raw dataKNYC 210551Z AUTO 29004KT 10SM CLR 17/11 A3023 RMK AO2 SLP227 T01670106 10206 20161 51010 $
An error has occurred. This application may no longer respond until reloaded. Reload 🗙